createdAt,value
2017-02-28T00:01:10.265Z,72.7
2017-02-28T00:02:20.634Z,72.6
2017-02-28T00:03:31.432Z,72.89
2017-02-28T00:04:42.214Z,72.75
2017-02-28T00:05:52.604Z,72.85
2017-02-28T00:07:03.438Z,72.56
2017-02-28T00:08:14.242Z,72.66
2017-02-28T00:09:25.031Z,72.47
2017-02-28T00:10:35.822Z,72.56
2017-02-28T00:11:46.596Z,72.66
2017-02-28T00:12:56.576Z,72.56
2017-02-28T00:14:06.963Z,72.66
2017-02-28T00:15:16.181Z,72.75
2017-02-28T00:16:26.580Z,72.66
2017-02-28T00:17:37.363Z,72.66
2017-02-28T00:18:47.724Z,72.85
2017-02-28T00:19:58.517Z,72.85
2017-02-28T00:21:08.545Z,72.75
2017-02-28T00:22:18.926Z,72.66
2017-02-28T00:23:28.907Z,72.85
2017-02-28T00:24:39.316Z,72.66
2017-02-28T00:25:49.698Z,72.75
2017-02-28T00:27:00.493Z,72.75
2017-02-28T00:28:10.884Z,72.75
2017-02-28T00:29:20.864Z,72.56
2017-02-28T00:30:31.257Z,72.85
2017-02-28T00:31:41.647Z,72.75
2017-02-28T00:32:52.429Z,72.75
2017-02-28T00:34:02.794Z,72.75
2017-02-28T00:35:13.559Z,72.75
2017-02-28T00:36:23.951Z,72.75
2017-02-28T00:37:32.751Z,72.56
2017-02-28T00:38:43.550Z,72.56
2017-02-28T00:39:54.338Z,72.75
2017-02-28T00:41:05.134Z,72.66
2017-02-28T00:42:15.509Z,72.95
2017-02-28T00:43:26.301Z,72.85
2017-02-28T00:44:36.682Z,72.75
2017-02-28T00:45:47.468Z,72.95
2017-02-28T00:46:57.867Z,72.85
2017-02-28T00:48:08.290Z,73.04
2017-02-28T00:49:19.061Z,72.85
2017-02-28T00:50:29.846Z,73.04
2017-02-28T00:51:40.611Z,72.95
2017-02-28T00:52:51.409Z,73.04
2017-02-28T00:54:01.802Z,73.04
2017-02-28T00:55:12.602Z,72.95
2017-02-28T00:56:23.376Z,72.66
2017-02-28T00:57:33.755Z,72.66
2017-02-28T00:58:44.167Z,72.81
2017-02-28T00:59:54.945Z,72.66
2017-02-28T01:01:04.966Z,72.72
2017-02-28T01:02:15.346Z,72.63
2017-02-28T01:03:26.126Z,72.81
2017-02-28T01:04:36.918Z,72.72
2017-02-28T01:05:47.721Z,72.63
2017-02-28T01:06:58.128Z,72.81
2017-02-28T01:08:08.739Z,72.91
2017-02-28T01:09:19.515Z,72.81
2017-02-28T01:10:29.905Z,72.63
2017-02-28T01:11:40.685Z,72.72
2017-02-28T01:12:51.489Z,72.06
2017-02-28T01:14:01.892Z,71.96
2017-02-28T01:15:11.508Z,72.72
2017-02-28T01:16:21.500Z,72.72
2017-02-28T01:17:31.516Z,71.96
2017-02-28T01:18:41.883Z,72.72
2017-02-28T01:19:51.865Z,72.15
2017-02-28T01:21:02.240Z,71.86
2017-02-28T01:22:13.048Z,72.15
2017-02-28T01:23:23.435Z,72.25
2017-02-28T01:24:34.223Z,72.06
2017-02-28T01:25:44.993Z,72.15
2017-02-28T01:26:55.393Z,71.96
2017-02-28T01:28:06.174Z,71.96
2017-02-28T01:29:16.941Z,71.96
2017-02-28T01:30:27.321Z,72.81
2017-02-28T01:31:37.698Z,72.72
2017-02-28T01:32:47.674Z,71.96
2017-02-28T01:33:58.049Z,72.63
2017-02-28T01:35:08.445Z,72.63
2017-02-28T01:36:18.829Z,72.81
2017-02-28T01:37:29.606Z,72.72
2017-02-28T01:38:40.022Z,72.63
2017-02-28T01:39:50.401Z,72.63
2017-02-28T01:41:00.391Z,72.63
2017-02-28T01:42:11.176Z,72.63
2017-02-28T01:43:21.940Z,72.63
2017-02-28T01:44:31.936Z,72.91
2017-02-28T01:45:42.299Z,72.63
2017-02-28T01:46:53.075Z,72.63
2017-02-28T01:48:03.878Z,71.86
2017-02-28T01:49:14.650Z,71.96
2017-02-28T01:50:25.414Z,71.96
2017-02-28T01:51:36.193Z,71.96
2017-02-28T01:52:46.560Z,71.96
2017-02-28T01:53:57.364Z,71.96
2017-02-28T01:55:08.141Z,72.15
2017-02-28T01:56:18.928Z,71.86
2017-02-28T01:57:29.721Z,71.96
2017-02-28T01:58:40.494Z,72.15
2017-02-28T01:59:50.885Z,72.06
2017-02-28T02:01:01.661Z,72.53
2017-02-28T02:02:11.240Z,72.53
2017-02-28T02:03:22.000Z,72.15
2017-02-28T02:04:32.793Z,71.96
2017-02-28T02:05:43.171Z,71.96
2017-02-28T02:06:53.954Z,72.63
2017-02-28T02:08:04.721Z,71.96
2017-02-28T02:09:15.486Z,72.06
2017-02-28T02:10:25.868Z,71.86
2017-02-28T02:11:36.673Z,72.88
2017-02-28T02:12:47.048Z,72.72
2017-02-28T02:13:57.829Z,72.59
2017-02-28T02:15:07.839Z,72.59
2017-02-28T02:16:18.251Z,72.68
2017-02-28T02:17:28.678Z,72.88
2017-02-28T02:18:38.692Z,72.78
2017-02-28T02:19:49.066Z,72.59
2017-02-28T02:20:59.869Z,72.59
2017-02-28T02:22:10.251Z,72.11
2017-02-28T02:23:21.042Z,72.02
2017-02-28T02:24:30.614Z,72.59
2017-02-28T02:25:41.026Z,72.59
2017-02-28T02:26:51.399Z,72.59
2017-02-28T02:28:01.780Z,72.78
2017-02-28T02:29:12.180Z,72.78
2017-02-28T02:30:22.581Z,72.68
2017-02-28T02:31:33.382Z,72.59
2017-02-28T02:32:43.783Z,72.59
2017-02-28T02:33:54.188Z,72.11
2017-02-28T02:35:04.183Z,72.49
2017-02-28T02:36:14.958Z,72.11
2017-02-28T02:37:25.753Z,71.83
2017-02-28T02:38:36.517Z,72.02
2017-02-28T02:39:47.305Z,72.21
2017-02-28T02:40:57.284Z,72.21
2017-02-28T02:42:08.060Z,72.11
2017-02-28T02:43:18.445Z,72.11
2017-02-28T02:44:28.424Z,72.11
2017-02-28T02:45:38.429Z,72.02
2017-02-28T02:46:48.460Z,72.11
2017-02-28T02:47:59.230Z,72.11
2017-02-28T02:49:09.605Z,72.02
2017-02-28T02:50:19.581Z,72.21
2017-02-28T02:51:30.336Z,72.21
2017-02-28T02:52:41.128Z,72.11
2017-02-28T02:53:51.912Z,72.11
2017-02-28T02:55:02.691Z,72.21
2017-02-28T02:56:13.092Z,72.11
2017-02-28T02:57:23.475Z,72.11
2017-02-28T02:58:33.877Z,72.21
2017-02-28T02:59:44.638Z,72.21
2017-02-28T03:00:55.030Z,72.3
2017-02-28T03:32:25.805Z,71.36
2017-02-28T03:33:36.181Z,72.03
2017-02-28T03:34:46.964Z,72.88
2017-02-28T03:35:57.603Z,73.35
2017-02-28T03:37:08.390Z,74.58
2017-02-28T03:38:18.765Z,74.4
2017-02-28T03:39:29.546Z,74.58
2017-02-28T03:40:39.903Z,74.4
2017-02-28T03:41:49.491Z,75.24
2017-02-28T03:42:59.887Z,74.68
2017-02-28T03:44:10.664Z,74.81
2017-02-28T03:45:21.437Z,74.24
2017-02-28T03:46:31.832Z,74.24
2017-02-28T03:47:42.232Z,74.18
2017-02-28T03:48:52.649Z,73.33
2017-02-28T03:50:03.424Z,73.43
2017-02-28T03:51:14.223Z,73.71
2017-02-28T03:52:25.050Z,73.71
2017-02-28T03:56:20.594Z,72.99
2017-02-28T03:57:30.606Z,73.27
2017-02-28T03:58:40.987Z,73.08
2017-02-28T03:59:51.375Z,72.8
2017-02-28T04:01:02.160Z,72.74
2017-02-28T04:02:12.538Z,72.64
2017-02-28T04:03:23.319Z,72.64
2017-02-28T04:04:34.106Z,72.64
2017-02-28T04:05:44.095Z,72.64
2017-02-28T04:06:54.087Z,72.45
2017-02-28T04:08:04.856Z,72.74
2017-02-28T04:09:14.856Z,73.03
2017-02-28T04:10:25.232Z,72.55
2017-02-28T04:11:35.637Z,72.93
2017-02-28T04:12:46.008Z,72.93
2017-02-28T04:13:56.776Z,72.93
2017-02-28T04:15:07.548Z,72.97
2017-02-28T04:16:18.331Z,72.84
2017-02-28T04:17:29.106Z,72.97
2017-02-28T04:18:39.890Z,72.88
2017-02-28T04:19:50.679Z,73.07
2017-02-28T04:21:00.704Z,72.88
2017-02-28T04:22:11.505Z,72.88
2017-02-28T04:23:21.887Z,72.88
2017-02-28T04:24:32.261Z,72.88
2017-02-28T04:25:43.052Z,72.97
2017-02-28T04:26:53.810Z,72.97
2017-02-28T04:28:03.408Z,72.97
2017-02-28T04:29:13.802Z,72.68
2017-02-28T04:30:24.192Z,72.78
2017-02-28T04:31:34.966Z,72.68
2017-02-28T04:32:45.350Z,72.68
2017-02-28T04:33:56.125Z,72.68
2017-02-28T04:35:06.543Z,72.59
2017-02-28T04:36:17.333Z,72.59
2017-02-28T04:37:28.104Z,72.88
2017-02-28T04:38:38.536Z,72.88
2017-02-28T04:39:49.338Z,72.78
2017-02-28T04:40:59.716Z,72.78
2017-02-28T04:42:09.706Z,72.59
2017-02-28T04:43:20.078Z,72.78
2017-02-28T04:44:30.866Z,72.78
2017-02-28T04:45:41.668Z,72.68
2017-02-28T04:46:52.456Z,72.59
2017-02-28T04:48:03.236Z,72.59
2017-02-28T04:49:14.004Z,72.68
2017-02-28T04:50:24.386Z,72.59
2017-02-28T04:51:33.965Z,72.59
2017-02-28T04:52:44.358Z,73.07
2017-02-28T04:53:54.761Z,73.07
2017-02-28T04:55:05.569Z,72.97
2017-02-28T04:56:15.968Z,73.07
2017-02-28T04:57:26.337Z,72.59
2017-02-28T04:58:37.122Z,72.63
2017-02-28T04:59:47.490Z,72.78
2017-02-28T05:00:57.881Z,72.91
2017-02-28T05:02:08.672Z,73
2017-02-28T05:03:19.459Z,73
2017-02-28T05:04:29.851Z,72.91
2017-02-28T05:05:39.840Z,72.91
2017-02-28T05:06:50.230Z,72.72
2017-02-28T05:08:00.621Z,73
2017-02-28T05:09:11.034Z,72.91
2017-02-28T05:10:21.005Z,72.91
2017-02-28T05:11:31.024Z,72.53
2017-02-28T05:12:41.810Z,72.44
2017-02-28T05:13:52.599Z,72.15
2017-02-28T05:15:03.368Z,72.44
2017-02-28T05:16:13.344Z,72.53
2017-02-28T05:17:24.134Z,73
2017-02-28T05:18:34.502Z,72.15
2017-02-28T05:19:44.497Z,72.15
2017-02-28T05:20:54.497Z,72.15
2017-02-28T05:22:05.319Z,72.25
2017-02-28T05:23:15.728Z,72.91
2017-02-28T05:24:26.111Z,73.1
2017-02-28T05:25:36.892Z,72.91
2017-02-28T05:26:47.284Z,72.72
2017-02-28T05:27:58.055Z,72.44
2017-02-28T05:29:08.043Z,72.63
2017-02-28T05:30:17.634Z,72.63
2017-02-28T05:31:28.432Z,72.34
2017-02-28T05:32:39.216Z,72.34
2017-02-28T05:33:50.038Z,72.44
2017-02-28T05:35:00.816Z,72.81
2017-02-28T05:36:11.580Z,72.44
2017-02-28T05:37:21.996Z,72.44
2017-02-28T05:38:32.798Z,72.63
2017-02-28T05:39:43.197Z,72.63
2017-02-28T05:40:53.575Z,72.72
2017-02-28T05:42:03.938Z,72.63
2017-02-28T05:43:14.360Z,72.72
2017-02-28T05:44:24.346Z,72.72
2017-02-28T05:45:33.954Z,72.44
2017-02-28T05:46:44.392Z,72.66
2017-02-28T05:47:55.171Z,72.63
2017-02-28T05:49:05.539Z,73.14
2017-02-28T05:50:16.318Z,72.15
2017-02-28T05:51:27.091Z,72.28
2017-02-28T05:52:37.474Z,72.66
2017-02-28T05:53:48.285Z,72.66
2017-02-28T05:54:59.066Z,72.75
2017-02-28T05:56:09.451Z,72.38
2017-02-28T05:57:20.231Z,72.56
2017-02-28T05:58:30.997Z,72.56
2017-02-28T05:59:41.759Z,72.38
2017-02-28T06:00:52.546Z,72.38
2017-02-28T06:02:03.318Z,72.28
2017-02-28T06:03:13.714Z,72.47
2017-02-28T06:04:24.106Z,72.75
2017-02-28T06:05:34.468Z,72.75
2017-02-28T06:06:45.270Z,72.66
2017-02-28T06:07:56.052Z,72.56
2017-02-28T06:09:06.438Z,72.47
2017-02-28T06:10:16.412Z,72.56
2017-02-28T06:11:26.813Z,72.56
2017-02-28T06:12:37.615Z,72.79
2017-02-28T06:13:47.999Z,72.85
2017-02-28T06:14:58.815Z,72.47
2017-02-28T06:16:09.599Z,72.28
2017-02-28T06:17:20.383Z,72.56
2017-02-28T06:18:31.167Z,72.56
2017-02-28T06:19:41.948Z,72.75
2017-02-28T06:20:51.980Z,72.66
2017-02-28T06:22:02.372Z,72.79
2017-02-28T06:23:13.141Z,72.75
2017-02-28T06:24:23.531Z,72.75
2017-02-28T06:25:34.331Z,72.66
2017-02-28T06:26:44.726Z,72.66
2017-02-28T06:27:55.105Z,72.75
2017-02-28T06:29:05.873Z,72.75
2017-02-28T06:30:16.673Z,72.66
2017-02-28T06:31:27.461Z,72.66
2017-02-28T06:32:38.267Z,72.38
2017-02-28T06:33:48.271Z,72.28
2017-02-28T06:34:59.032Z,72.47
2017-02-28T06:36:09.027Z,72.38
2017-02-28T06:37:19.429Z,72.47
2017-02-28T06:38:30.228Z,72.75
2017-02-28T06:39:40.598Z,72.75
2017-02-28T06:40:50.985Z,72.75
2017-02-28T06:42:01.371Z,72.66
2017-02-28T06:43:11.758Z,72.66
2017-02-28T06:44:22.155Z,72.66
2017-02-28T06:45:32.530Z,72.85
2017-02-28T06:46:42.121Z,72.66
2017-02-28T06:47:52.130Z,72.75
2017-02-28T06:49:02.539Z,72.56
2017-02-28T06:50:12.973Z,72.75
2017-02-28T06:51:23.750Z,72.85
2017-02-28T06:52:34.144Z,72.75
2017-02-28T06:53:44.918Z,72.85
2017-02-28T06:54:55.351Z,72.85
2017-02-28T06:56:05.381Z,73.04
2017-02-28T06:57:15.780Z,72.66
2017-02-28T06:58:26.595Z,73.04
2017-02-28T06:59:37.377Z,72.95
2017-02-28T07:00:48.169Z,72.19
2017-02-28T07:01:58.971Z,72.13
2017-02-28T07:03:09.750Z,72.75
2017-02-28T07:04:19.728Z,72.19
2017-02-28T07:05:30.513Z,72.19
2017-02-28T07:06:41.302Z,72.41
2017-02-28T07:07:51.288Z,72.6
2017-02-28T07:09:01.261Z,72.13
2017-02-28T07:10:12.042Z,72.32
2017-02-28T07:11:22.011Z,71.94
2017-02-28T07:12:32.802Z,71.84
2017-02-28T07:13:43.168Z,71.66
2017-02-28T07:14:53.951Z,72.03
2017-02-28T07:16:04.341Z,71.69
2017-02-28T07:17:14.753Z,71.88
2017-02-28T07:18:25.147Z,71.31
2017-02-28T07:19:35.570Z,71.5
2017-02-28T07:20:45.959Z,71.5
2017-02-28T07:21:56.741Z,71.22
2017-02-28T07:23:07.169Z,71.5
2017-02-28T07:24:17.967Z,71.5
2017-02-28T07:25:27.970Z,71.25
2017-02-28T07:26:38.745Z,70.68
2017-02-28T07:27:49.515Z,70.87
2017-02-28T07:28:59.110Z,70.87
2017-02-28T07:30:09.916Z,70.97
2017-02-28T07:31:20.707Z,70.62
2017-02-28T07:32:31.517Z,70.43
2017-02-28T07:33:41.127Z,70.72
2017-02-28T07:34:51.926Z,70.62
2017-02-28T07:36:01.512Z,70.65
2017-02-28T07:37:12.301Z,70.65
2017-02-28T07:38:22.318Z,70.94
2017-02-28T07:39:33.127Z,70.78
2017-02-28T07:40:43.517Z,70.59
2017-02-28T07:41:53.908Z,70.97
2017-02-28T07:43:04.690Z,70.97
2017-02-28T07:44:15.459Z,70.5
2017-02-28T07:45:25.854Z,70.69
2017-02-28T07:46:36.649Z,70.88
2017-02-28T07:47:47.453Z,71.07
2017-02-28T07:48:57.849Z,71.17
2017-02-28T07:50:08.229Z,71.36
2017-02-28T07:51:18.225Z,70.88
2017-02-28T07:52:29.234Z,71.2
2017-02-28T07:53:40.015Z,70.53
2017-02-28T07:54:50.403Z,70.92
2017-02-28T07:56:00.804Z,70.72
2017-02-28T07:57:11.179Z,70.76
2017-02-28T07:58:21.552Z,70.57
2017-02-28T07:59:31.948Z,70.95
2017-02-28T08:00:41.925Z,70.95
2017-02-28T08:01:52.724Z,70.67
2017-02-28T08:03:03.512Z,71.33
2017-02-28T08:04:14.294Z,70.98
2017-02-28T08:05:24.280Z,71.37
2017-02-28T08:06:34.659Z,70.98
2017-02-28T08:07:45.451Z,71.27
2017-02-28T08:08:55.037Z,71.37
2017-02-28T08:10:05.019Z,71.37
2017-02-28T08:11:15.398Z,71.18
2017-02-28T08:12:25.783Z,70.79
2017-02-28T08:13:36.173Z,71.75
2017-02-28T08:14:46.566Z,71.56
2017-02-28T08:15:57.386Z,71.46
2017-02-28T08:17:07.777Z,71.66
2017-02-28T08:18:18.171Z,72.03
2017-02-28T08:19:28.937Z,72.03
2017-02-28T08:20:39.312Z,71.31
2017-02-28T08:21:49.696Z,71.78
2017-02-28T08:23:00.496Z,71.75
2017-02-28T08:24:10.898Z,71.75
2017-02-28T08:25:21.304Z,71.78
2017-02-28T08:26:31.697Z,71.59
2017-02-28T08:27:42.098Z,71.78
2017-02-28T08:28:52.464Z,71.88
2017-02-28T08:30:03.246Z,71.69
2017-02-28T08:31:13.226Z,71.5
2017-02-28T08:32:22.470Z,71.5
2017-02-28T08:33:33.276Z,71.78
2017-02-28T08:34:44.073Z,71.88
2017-02-28T08:35:54.855Z,71.69
2017-02-28T08:37:04.863Z,71.12
2017-02-28T08:38:15.273Z,71.12
2017-02-28T08:39:25.664Z,71.44
2017-02-28T08:40:36.060Z,71.34
2017-02-28T08:41:46.481Z,71.15
2017-02-28T08:42:56.478Z,71.06
2017-02-28T08:44:06.873Z,70.67
2017-02-28T08:45:17.655Z,70.33
2017-02-28T08:46:28.062Z,70.42
2017-02-28T08:47:38.446Z,70.04
2017-02-28T08:48:48.028Z,70.27
2017-02-28T08:49:58.810Z,69.98
2017-02-28T08:51:09.203Z,69.98
2017-02-28T08:52:20.004Z,70.11
2017-02-28T08:53:30.009Z,70.11
2017-02-28T08:54:40.813Z,70.11
2017-02-28T08:55:51.630Z,70.21
2017-02-28T08:57:01.646Z,70.68
2017-02-28T08:58:12.067Z,70.5
2017-02-28T08:59:22.867Z,70.11
2017-02-28T09:00:32.477Z,70.68
2017-02-28T09:01:43.253Z,70.62
2017-02-28T09:02:54.034Z,70.24
2017-02-28T09:04:03.657Z,70.24
2017-02-28T09:05:14.044Z,70.18
2017-02-28T09:06:24.471Z,69.89
2017-02-28T09:07:34.494Z,70.28
2017-02-28T09:08:44.876Z,70.28
2017-02-28T09:09:55.260Z,70.18
2017-02-28T09:11:06.046Z,70.47
2017-02-28T09:12:16.023Z,70.47
2017-02-28T09:13:26.016Z,70.85
2017-02-28T09:14:36.025Z,70.79
2017-02-28T09:15:46.822Z,70.41
2017-02-28T09:16:57.652Z,70.6
2017-02-28T09:18:08.082Z,70.41
2017-02-28T09:19:18.475Z,70.31
2017-02-28T09:20:28.873Z,70.41
2017-02-28T09:21:39.661Z,70.44
2017-02-28T09:22:49.653Z,70.64
2017-02-28T09:24:00.455Z,70.54
2017-02-28T09:25:11.247Z,70.64
2017-02-28T09:26:22.036Z,70.44
2017-02-28T09:27:32.465Z,69.81
2017-02-28T09:28:43.444Z,70.29
2017-02-28T09:29:53.930Z,69.71
2017-02-28T09:31:04.772Z,69.36
2017-02-28T09:32:15.218Z,69.65
2017-02-28T09:33:26.078Z,69.46
2017-02-28T09:34:36.925Z,68.79
2017-02-28T09:35:47.770Z,69.78
2017-02-28T09:36:58.629Z,69.56
2017-02-28T09:38:09.307Z,69.87
2017-02-28T09:39:19.332Z,70.26
2017-02-28T09:40:30.199Z,70.32
2017-02-28T09:41:40.193Z,70.61
2017-02-28T09:42:50.212Z,71.37
2017-02-28T09:44:01.035Z,71.28
2017-02-28T09:45:11.428Z,71.76
2017-02-28T09:46:21.819Z,71.63
2017-02-28T09:47:32.219Z,71.53
2017-02-28T09:48:42.229Z,71.25
2017-02-28T09:49:53.053Z,70.32
2017-02-28T09:51:03.850Z,70.61
2017-02-28T09:52:14.240Z,70.23
2017-02-28T09:53:25.046Z,70.32
2017-02-28T09:54:35.456Z,70.17
2017-02-28T09:55:46.259Z,69.78
2017-02-28T09:56:57.041Z,70.42
2017-02-28T09:58:07.876Z,70.9
2017-02-28T09:59:18.287Z,70.61
2017-02-28T10:00:28.681Z,71.37
2017-02-28T10:01:39.503Z,71.19
2017-02-28T10:02:49.957Z,70.7
2017-02-28T10:04:00.739Z,70.42
2017-02-28T10:05:11.129Z,70.61
2017-02-28T10:06:21.933Z,70.9
2017-02-28T10:07:32.340Z,70.61
2017-02-28T10:08:42.744Z,70.51
2017-02-28T10:09:52.402Z,70.51
2017-02-28T10:11:01.997Z,70.42
2017-02-28T10:12:12.397Z,70.51
2017-02-28T10:13:22.801Z,70.61
2017-02-28T10:14:33.252Z,70.61
2017-02-28T10:15:43.642Z,70.76
2017-02-28T10:16:54.071Z,70.48
2017-02-28T10:18:04.461Z,70.86
2017-02-28T10:19:15.268Z,70.48
2017-02-28T10:20:26.083Z,70.9
2017-02-28T10:21:36.120Z,70.51
2017-02-28T10:22:46.927Z,70.51
2017-02-28T10:23:57.774Z,70.51
2017-02-28T10:25:08.160Z,70.51
2017-02-28T10:26:18.947Z,70.7
2017-02-28T10:27:29.770Z,70.67
2017-02-28T10:28:40.231Z,71.25
2017-02-28T10:29:50.265Z,70.86
2017-02-28T10:31:00.319Z,70.67
2017-02-28T10:32:11.170Z,71.21
2017-02-28T10:33:21.227Z,71.11
2017-02-28T10:34:31.732Z,70.83
2017-02-28T10:35:42.169Z,71.02
2017-02-28T10:36:52.998Z,71.4
2017-02-28T10:38:03.861Z,71.02
2017-02-28T10:39:14.706Z,71.31
2017-02-28T10:40:25.552Z,71.11
2017-02-28T10:41:36.419Z,71.4
2017-02-28T10:42:46.863Z,71.4
2017-02-28T10:43:57.708Z,71.31
2017-02-28T10:45:08.820Z,71.11
2017-02-28T10:46:19.269Z,71.02
2017-02-28T10:47:30.065Z,71.31
2017-02-28T10:48:40.464Z,70.54
2017-02-28T10:49:51.265Z,70.44
2017-02-28T10:51:01.712Z,70.38
2017-02-28T10:52:12.502Z,70.19
2017-02-28T10:53:23.324Z,70.09
2017-02-28T10:54:34.147Z,70.38
2017-02-28T10:55:44.566Z,70.09
2017-02-28T10:56:54.962Z,69.81
2017-02-28T10:58:05.755Z,69.9
2017-02-28T10:59:16.558Z,70.29
2017-02-28T11:00:27.368Z,70.32
2017-02-28T11:01:37.791Z,70.13
2017-02-28T11:02:47.385Z,70.13
2017-02-28T11:03:57.826Z,70.23
2017-02-28T11:05:08.238Z,70.23
2017-02-28T11:06:18.646Z,70.03
2017-02-28T11:07:29.035Z,70.32
2017-02-28T11:08:39.831Z,69.84
2017-02-28T11:09:50.248Z,69.97
2017-02-28T11:11:00.663Z,69.97
2017-02-28T11:12:11.475Z,69.87
2017-02-28T11:13:22.305Z,69.97
2017-02-28T11:14:33.109Z,69.68
2017-02-28T11:15:42.720Z,69.87
2017-02-28T11:16:53.153Z,69.87
2017-02-28T11:18:03.575Z,69.97
2017-02-28T11:19:13.986Z,69.81
2017-02-28T11:20:24.793Z,70.01
2017-02-28T11:21:35.199Z,69.91
2017-02-28T11:22:45.982Z,69.72
2017-02-28T11:23:56.779Z,70.17
2017-02-28T11:25:07.560Z,70.2
2017-02-28T11:26:17.968Z,70.49
2017-02-28T11:27:28.786Z,70.2
2017-02-28T11:28:39.193Z,69.91
2017-02-28T11:29:49.631Z,70.2
2017-02-28T11:30:59.233Z,70.1
2017-02-28T11:32:10.056Z,70.2
2017-02-28T11:33:20.865Z,70.49
2017-02-28T11:34:30.901Z,70.2
2017-02-28T11:35:41.323Z,70.2
2017-02-28T11:36:52.165Z,70.39
2017-02-28T11:38:02.953Z,70.23
2017-02-28T11:39:13.766Z,70.23
2017-02-28T11:40:24.560Z,70.14
2017-02-28T11:41:35.354Z,70.14
2017-02-28T11:42:45.375Z,70.14
2017-02-28T11:43:54.981Z,70.04
2017-02-28T11:45:05.820Z,69.95
2017-02-28T11:46:16.596Z,70.33
2017-02-28T11:47:27.418Z,70.23
2017-02-28T11:48:38.227Z,71
2017-02-28T11:49:49.038Z,70.72
2017-02-28T11:50:59.465Z,70.52
2017-02-28T11:52:09.875Z,70.72
2017-02-28T11:53:20.699Z,70.49
2017-02-28T11:54:30.709Z,70.78
2017-02-28T11:55:41.732Z,70.68
2017-02-28T11:56:51.782Z,70.49
2017-02-28T11:58:02.209Z,70.39
2017-02-28T11:59:12.994Z,70.78
2017-02-28T12:00:23.404Z,70.81
2017-02-28T12:01:33.841Z,70.62
2017-02-28T12:02:43.869Z,71
2017-02-28T12:03:54.274Z,71
2017-02-28T12:05:04.649Z,70.72
2017-02-28T12:06:15.079Z,70.81
2017-02-28T12:07:25.898Z,70.72
2017-02-28T12:08:36.688Z,70.49
2017-02-28T12:09:47.483Z,70.68
2017-02-28T12:10:58.269Z,70.49
2017-02-28T12:12:08.642Z,70.97
2017-02-28T12:13:19.052Z,71.35
2017-02-28T12:14:29.439Z,71.25
2017-02-28T12:15:40.256Z,71.35
2017-02-28T12:16:51.076Z,71.16
2017-02-28T12:18:01.089Z,71.12
2017-02-28T12:19:11.088Z,71.22
2017-02-28T12:20:21.891Z,71.41
2017-02-28T12:21:32.308Z,71.12
2017-02-28T12:22:43.109Z,71.41
2017-02-28T12:23:53.503Z,71.41
2017-02-28T12:25:04.290Z,71.41
2017-02-28T12:26:15.145Z,70.93
2017-02-28T12:27:25.146Z,71.22
2017-02-28T12:28:35.534Z,71.47
2017-02-28T12:29:45.909Z,71.37
2017-02-28T12:30:56.735Z,71.19
2017-02-28T12:32:06.744Z,71.19
2017-02-28T12:33:16.394Z,71.47
2017-02-28T12:34:26.789Z,70.9
2017-02-28T12:35:36.790Z,70.7
2017-02-28T12:36:47.195Z,70.61
2017-02-28T12:37:57.599Z,70.42
2017-02-28T12:39:08.401Z,70.7
2017-02-28T12:40:18.813Z,70.61
2017-02-28T12:41:29.617Z,70.32
2017-02-28T12:42:39.638Z,70.7
2017-02-28T12:43:50.453Z,70.42
2017-02-28T12:45:00.862Z,70.42
2017-02-28T12:46:11.248Z,70.93
2017-02-28T12:47:21.663Z,70.93
2017-02-28T12:48:32.057Z,70.55
2017-02-28T12:49:42.907Z,70.55
2017-02-28T12:50:53.739Z,70.93
2017-02-28T12:52:04.151Z,70.64
2017-02-28T12:53:14.573Z,70.55
2017-02-28T12:54:25.005Z,71.03
2017-02-28T12:55:35.419Z,70.55
2017-02-28T12:56:45.818Z,70.55
2017-02-28T12:57:56.231Z,70.45
2017-02-28T12:59:07.016Z,70.97
2017-02-28T13:00:17.224Z,70.93
2017-02-28T13:01:27.260Z,70.68
2017-02-28T13:02:38.051Z,70.97
2017-02-28T13:03:48.454Z,71.06
2017-02-28T13:04:58.456Z,70.87
2017-02-28T13:06:08.853Z,70.58
2017-02-28T13:07:19.271Z,70.97
2017-02-28T13:08:30.068Z,70.68
2017-02-28T13:09:40.849Z,70.68
2017-02-28T13:10:51.235Z,70.97
2017-02-28T13:12:01.652Z,70.49
2017-02-28T13:13:12.468Z,70.9
2017-02-28T13:14:23.245Z,70.43
2017-02-28T13:15:33.689Z,70.29
2017-02-28T13:16:44.079Z,71.06
2017-02-28T13:17:54.909Z,70.68
2017-02-28T13:19:05.314Z,70.78
2017-02-28T13:20:14.934Z,70.78
2017-02-28T13:21:25.748Z,70.72
2017-02-28T13:22:36.127Z,70.62
2017-02-28T13:23:46.519Z,70.33
2017-02-28T13:24:56.916Z,69.98
2017-02-28T13:26:07.719Z,70.07
2017-02-28T13:27:18.133Z,69.98
2017-02-28T13:28:28.943Z,69.69
2017-02-28T13:29:39.774Z,69.79
2017-02-28T13:30:50.193Z,70.56
2017-02-28T13:32:00.605Z,69.89
2017-02-28T13:33:11.422Z,70.17
2017-02-28T13:34:21.835Z,70.37
2017-02-28T13:35:32.244Z,70.37
2017-02-28T13:36:43.052Z,70.27
2017-02-28T13:37:53.878Z,70.56
2017-02-28T13:39:04.284Z,70.94
2017-02-28T13:40:15.117Z,70.56
2017-02-28T13:41:25.951Z,70.62
2017-02-28T13:42:36.351Z,71
2017-02-28T13:43:47.178Z,70.56
2017-02-28T13:44:57.805Z,70.75
2017-02-28T13:46:08.203Z,70.75
2017-02-28T13:47:18.609Z,70.65
2017-02-28T13:48:29.020Z,71.48
2017-02-28T13:49:39.818Z,71.48
2017-02-28T13:50:50.645Z,71.45
2017-02-28T13:52:01.448Z,71.55
2017-02-28T13:53:12.271Z,72.22
2017-02-28T13:54:22.683Z,72.22
2017-02-28T13:55:33.505Z,72.47
2017-02-28T13:56:43.504Z,72.18
2017-02-28T13:57:54.328Z,72.28
2017-02-28T13:59:04.750Z,72.53
2017-02-28T14:00:15.551Z,72.53
2017-02-28T14:01:26.366Z,72.53
2017-02-28T14:02:37.169Z,72.63
2017-02-28T14:03:47.573Z,72.53
2017-02-28T14:04:57.590Z,72.53
2017-02-28T14:06:07.978Z,72.14
2017-02-28T14:07:18.380Z,72.49
2017-02-28T14:08:28.379Z,72.78
2017-02-28T14:09:39.212Z,72.88
2017-02-28T14:10:49.274Z,72.59
2017-02-28T14:11:59.300Z,72.11
2017-02-28T14:13:09.695Z,72.39
2017-02-28T14:14:19.734Z,72.49
2017-02-28T14:15:29.782Z,72.39
2017-02-28T14:16:40.200Z,72.68
2017-02-28T14:17:50.994Z,72.49
2017-02-28T14:19:00.624Z,72.39
2017-02-28T14:20:11.037Z,72.27
2017-02-28T14:21:21.844Z,72.36
2017-02-28T14:22:32.631Z,72.36
2017-02-28T14:23:42.645Z,72.17
2017-02-28T14:24:52.645Z,72.13
2017-02-28T14:26:03.057Z,72.52
2017-02-28T14:27:13.863Z,72.71
2017-02-28T14:28:24.698Z,72.42
2017-02-28T14:29:35.083Z,71.56
2017-02-28T14:30:45.878Z,71.94
2017-02-28T14:31:56.310Z,71.69
2017-02-28T14:33:06.743Z,71.59
2017-02-28T14:34:17.537Z,71.78
2017-02-28T14:35:27.950Z,71.4
2017-02-28T14:36:38.753Z,71.59
2017-02-28T14:37:48.760Z,71.69
2017-02-28T14:38:59.550Z,71.31
2017-02-28T14:40:09.544Z,71.69
2017-02-28T14:41:19.974Z,71.78
2017-02-28T14:42:30.382Z,71.78
2017-02-28T14:43:41.190Z,71.69
2017-02-28T14:44:51.582Z,71.5
2017-02-28T14:46:01.615Z,71.31
2017-02-28T14:47:12.037Z,71.59
2017-02-28T14:48:22.479Z,71.59
2017-02-28T14:49:33.277Z,71.59
2017-02-28T14:50:44.068Z,71.59
2017-02-28T14:51:54.460Z,71.59
2017-02-28T14:53:05.241Z,71.56
2017-02-28T14:54:15.256Z,71.27
2017-02-28T14:55:26.034Z,71.66
2017-02-28T14:56:36.440Z,71.84
2017-02-28T14:57:46.870Z,72.23
2017-02-28T14:58:57.329Z,72.13
2017-02-28T15:00:08.135Z,72.03
2017-02-28T15:01:18.965Z,72.13
2017-02-28T15:02:29.766Z,72.23
2017-02-28T15:03:40.584Z,72
2017-02-28T15:04:50.647Z,72.48
2017-02-28T15:06:01.431Z,72.38
2017-02-28T15:07:11.831Z,72.58
2017-02-28T15:08:22.222Z,73.05
2017-02-28T15:09:33.053Z,72.86
2017-02-28T15:10:43.074Z,72.73
2017-02-28T15:11:53.868Z,73.3
2017-02-28T15:13:04.676Z,73.3
2017-02-28T15:14:14.273Z,73.5
2017-02-28T15:15:24.699Z,72.73
2017-02-28T15:16:34.320Z,72.5
2017-02-28T15:17:44.748Z,73.11
2017-02-28T15:18:55.170Z,72.6
2017-02-28T15:20:05.236Z,72.44
2017-02-28T15:21:16.048Z,72.5
2017-02-28T15:22:26.503Z,73.17
2017-02-28T15:23:36.512Z,73.55
2017-02-28T15:24:46.934Z,73.17
2017-02-28T15:25:57.745Z,73.17
2017-02-28T15:27:08.542Z,73.27
2017-02-28T15:28:19.340Z,73.27
2017-02-28T15:29:30.165Z,73.17
2017-02-28T15:30:40.980Z,73.17
2017-02-28T15:31:51.391Z,73.27
2017-02-28T15:33:01.788Z,73.04
2017-02-28T15:34:12.169Z,72.75
2017-02-28T15:35:22.557Z,73.14
2017-02-28T15:36:33.372Z,72.56
2017-02-28T15:37:44.157Z,72.66
2017-02-28T15:38:54.988Z,73.14
2017-02-28T15:40:05.398Z,72.66
2017-02-28T15:41:16.175Z,72.66
2017-02-28T15:42:26.571Z,73.14
2017-02-28T15:43:37.396Z,72.94
2017-02-28T15:44:48.211Z,72.47